Stupino, Russia
Current Conditions -  °F | °C
As of 10:30 AM on Thursday 23 Oct 2014 (Local Time) from UUDD Reporting Station
Few Clouds Few Clouds  
Wind Chill:   Ceiling: Unl
Heat Index: 18°   Visibility: 6mi
Dew Point:   Wind: 13mph
Humidity: 68%   Direction: 340°NNW
Pressure: 30.24"   Gusts: NA
Location:  54.9°N, 38.07°E
Report Text: UUDD 230730Z 34006MPS 9999 FEW023 M08/M13 Q1024 32190095 NOSIG
Loading
Personal Weather Stations






























Interactive Weather Map
Tropical Storm Tracking
New forecast layout! Learn more

10-Day Weather Forecast

Advertisements
Track Severe Weather on mobile